sensor_id;sensor_type;location;lat;lon;timestamp;P1;durP1;ratioP1;P2;durP2;ratioP2
57067;SDS011;43391;47.448;18.904;2023-06-10T00:00:48;24.30;;;11.98;;
57067;SDS011;43391;47.448;18.904;2023-06-10T00:03:14;16.90;;;12.05;;
57067;SDS011;43391;47.448;18.904;2023-06-10T00:05:39;14.77;;;11.02;;
57067;SDS011;43391;47.448;18.904;2023-06-10T00:08:05;16.23;;;10.63;;
57067;SDS011;43391;47.448;18.904;2023-06-10T00:10:36;14.35;;;10.35;;
57067;SDS011;43391;47.448;18.904;2023-06-10T00:13:04;12.30;;;10.88;;
57067;SDS011;43391;47.448;18.904;2023-06-10T00:15:33;17.73;;;10.23;;
57067;SDS011;43391;47.448;18.904;2023-06-10T00:18:00;17.73;;;10.68;;
57067;SDS011;43391;47.448;18.904;2023-06-10T00:20:27;16.05;;;10.48;;
57067;SDS011;43391;47.448;18.904;2023-06-10T00:22:53;15.88;;;10.63;;
57067;SDS011;43391;47.448;18.904;2023-06-10T00:25:18;12.90;;;10.10;;
57067;SDS011;43391;47.448;18.904;2023-06-10T00:27:43;13.95;;;10.23;;
57067;SDS011;43391;47.448;18.904;2023-06-10T00:30:09;14.52;;;10.75;;
57067;SDS011;43391;47.448;18.904;2023-06-10T00:32:36;15.25;;;9.40;;
57067;SDS011;43391;47.448;18.904;2023-06-10T00:35:02;14.20;;;9.10;;
57067;SDS011;43391;47.448;18.904;2023-06-10T00:37:28;12.27;;;8.77;;
57067;SDS011;43391;47.448;18.904;2023-06-10T00:39:54;10.98;;;9.23;;
57067;SDS011;43391;47.448;18.904;2023-06-10T00:42:19;14.15;;;9.02;;
57067;SDS011;43391;47.448;18.904;2023-06-10T00:44:45;13.18;;;9.55;;
57067;SDS011;43391;47.448;18.904;2023-06-10T00:47:10;12.82;;;9.73;;
57067;SDS011;43391;47.448;18.904;2023-06-10T00:49:36;14.98;;;10.80;;
57067;SDS011;43391;47.448;18.904;2023-06-10T00:52:02;15.98;;;9.25;;
57067;SDS011;43391;47.448;18.904;2023-06-10T00:54:29;13.50;;;9.98;;
57067;SDS011;43391;47.448;18.904;2023-06-10T00:56:55;15.82;;;10.43;;
57067;SDS011;43391;47.448;18.904;2023-06-10T00:59:21;14.73;;;9.20;;
57067;SDS011;43391;47.448;18.904;2023-06-10T01:01:47;13.43;;;10.35;;
57067;SDS011;43391;47.448;18.904;2023-06-10T01:04:13;12.55;;;9.68;;
57067;SDS011;43391;47.448;18.904;2023-06-10T01:14:41;14.25;;;9.48;;
57067;SDS011;43391;47.448;18.904;2023-06-10T01:17:10;17.00;;;10.45;;
57067;SDS011;43391;47.448;18.904;2023-06-10T01:19:36;15.43;;;10.90;;
57067;SDS011;43391;47.448;18.904;2023-06-10T01:22:02;14.45;;;9.90;;
57067;SDS011;43391;47.448;18.904;2023-06-10T01:24:28;17.38;;;10.90;;
57067;SDS011;43391;47.448;18.904;2023-06-10T01:26:58;15.57;;;10.40;;
57067;SDS011;43391;47.448;18.904;2023-06-10T01:31:53;14.77;;;10.68;;
57067;SDS011;43391;47.448;18.904;2023-06-10T01:34:26;14.13;;;10.48;;
57067;SDS011;43391;47.448;18.904;2023-06-10T01:36:53;16.13;;;10.60;;
57067;SDS011;43391;47.448;18.904;2023-06-10T01:39:22;16.98;;;10.98;;
57067;SDS011;43391;47.448;18.904;2023-06-10T01:41:49;20.52;;;10.60;;
57067;SDS011;43391;47.448;18.904;2023-06-10T01:44:22;11.35;;;9.68;;
57067;SDS011;43391;47.448;18.904;2023-06-10T01:46:48;16.48;;;10.90;;
57067;SDS011;43391;47.448;18.904;2023-06-10T01:49:14;14.75;;;10.77;;
57067;SDS011;43391;47.448;18.904;2023-06-10T01:51:39;12.02;;;9.98;;
57067;SDS011;43391;47.448;18.904;2023-06-10T01:54:05;12.98;;;9.90;;
57067;SDS011;43391;47.448;18.904;2023-06-10T01:56:31;14.63;;;10.68;;
57067;SDS011;43391;47.448;18.904;2023-06-10T01:58:56;23.17;;;10.45;;
57067;SDS011;43391;47.448;18.904;2023-06-10T02:01:24;19.23;;;11.30;;
57067;SDS011;43391;47.448;18.904;2023-06-10T02:03:50;18.83;;;12.10;;
57067;SDS011;43391;47.448;18.904;2023-06-10T02:06:16;14.23;;;10.90;;
57067;SDS011;43391;47.448;18.904;2023-06-10T02:08:41;18.30;;;11.93;;
57067;SDS011;43391;47.448;18.904;2023-06-10T02:11:07;15.90;;;11.07;;
57067;SDS011;43391;47.448;18.904;2023-06-10T02:13:32;17.45;;;11.93;;
57067;SDS011;43391;47.448;18.904;2023-06-10T02:15:58;18.23;;;11.43;;
57067;SDS011;43391;47.448;18.904;2023-06-10T02:18:23;16.63;;;11.52;;
57067;SDS011;43391;47.448;18.904;2023-06-10T02:20:48;14.25;;;11.25;;
57067;SDS011;43391;47.448;18.904;2023-06-10T02:23:14;12.48;;;9.43;;
57067;SDS011;43391;47.448;18.904;2023-06-10T02:25:39;18.95;;;9.68;;
57067;SDS011;43391;47.448;18.904;2023-06-10T02:28:05;12.10;;;9.38;;
57067;SDS011;43391;47.448;18.904;2023-06-10T02:30:30;12.07;;;9.38;;
57067;SDS011;43391;47.448;18.904;2023-06-10T02:32:56;12.70;;;9.55;;
57067;SDS011;43391;47.448;18.904;2023-06-10T02:35:22;11.70;;;9.30;;
57067;SDS011;43391;47.448;18.904;2023-06-10T02:37:47;13.52;;;10.68;;
57067;SDS011;43391;47.448;18.904;2023-06-10T02:40:13;13.07;;;10.13;;
57067;SDS011;43391;47.448;18.904;2023-06-10T02:42:38;17.38;;;10.05;;
57067;SDS011;43391;47.448;18.904;2023-06-10T02:45:03;13.98;;;9.88;;
57067;SDS011;43391;47.448;18.904;2023-06-10T02:47:29;10.63;;;9.18;;
57067;SDS011;43391;47.448;18.904;2023-06-10T02:49:55;16.42;;;10.60;;
57067;SDS011;43391;47.448;18.904;2023-06-10T02:52:20;13.57;;;10.18;;
57067;SDS011;43391;47.448;18.904;2023-06-10T02:54:45;16.60;;;9.93;;
57067;SDS011;43391;47.448;18.904;2023-06-10T02:57:11;15.70;;;9.52;;
57067;SDS011;43391;47.448;18.904;2023-06-10T02:59:36;13.25;;;10.77;;
57067;SDS011;43391;47.448;18.904;2023-06-10T03:02:02;18.70;;;11.35;;
57067;SDS011;43391;47.448;18.904;2023-06-10T03:04:27;15.85;;;10.45;;
57067;SDS011;43391;47.448;18.904;2023-06-10T03:06:54;14.38;;;10.20;;
57067;SDS011;43391;47.448;18.904;2023-06-10T03:09:19;17.50;;;10.32;;
57067;SDS011;43391;47.448;18.904;2023-06-10T03:11:45;14.63;;;9.55;;
57067;SDS011;43391;47.448;18.904;2023-06-10T03:14:10;12.90;;;9.68;;
57067;SDS011;43391;47.448;18.904;2023-06-10T03:16:36;20.83;;;8.85;;
57067;SDS011;43391;47.448;18.904;2023-06-10T03:19:05;14.63;;;8.95;;
57067;SDS011;43391;47.448;18.904;2023-06-10T03:21:31;10.50;;;8.68;;
57067;SDS011;43391;47.448;18.904;2023-06-10T03:23:56;9.95;;;7.97;;
57067;SDS011;43391;47.448;18.904;2023-06-10T03:26:21;11.55;;;8.50;;
57067;SDS011;43391;47.448;18.904;2023-06-10T03:28:47;10.68;;;8.10;;
57067;SDS011;43391;47.448;18.904;2023-06-10T03:31:13;12.55;;;7.72;;
57067;SDS011;43391;47.448;18.904;2023-06-10T03:33:38;9.40;;;7.63;;
57067;SDS011;43391;47.448;18.904;2023-06-10T03:36:04;10.55;;;7.57;;
57067;SDS011;43391;47.448;18.904;2023-06-10T03:38:30;10.13;;;7.18;;
57067;SDS011;43391;47.448;18.904;2023-06-10T03:40:55;10.48;;;8.48;;
57067;SDS011;43391;47.448;18.904;2023-06-10T03:43:20;14.63;;;7.72;;
57067;SDS011;43391;47.448;18.904;2023-06-10T03:45:46;14.32;;;8.35;;
57067;SDS011;43391;47.448;18.904;2023-06-10T03:48:13;10.38;;;7.38;;
57067;SDS011;43391;47.448;18.904;2023-06-10T03:50:38;12.85;;;8.23;;
57067;SDS011;43391;47.448;18.904;2023-06-10T03:53:03;8.80;;;7.90;;
57067;SDS011;43391;47.448;18.904;2023-06-10T03:55:29;8.88;;;7.97;;
57067;SDS011;43391;47.448;18.904;2023-06-10T03:57:56;13.23;;;8.13;;
57067;SDS011;43391;47.448;18.904;2023-06-10T04:00:21;13.85;;;8.15;;
57067;SDS011;43391;47.448;18.904;2023-06-10T04:02:47;10.73;;;8.25;;
57067;SDS011;43391;47.448;18.904;2023-06-10T04:05:17;14.75;;;8.82;;
57067;SDS011;43391;47.448;18.904;2023-06-10T04:07:45;9.57;;;8.48;;
57067;SDS011;43391;47.448;18.904;2023-06-10T04:10:11;13.43;;;10.38;;
57067;SDS011;43391;47.448;18.904;2023-06-10T04:12:37;25.05;;;17.23;;
57067;SDS011;43391;47.448;18.904;2023-06-10T04:15:03;22.17;;;15.90;;
57067;SDS011;43391;47.448;18.904;2023-06-10T04:17:29;14.45;;;11.40;;
57067;SDS011;43391;47.448;18.904;2023-06-10T04:19:55;13.75;;;9.32;;
57067;SDS011;43391;47.448;18.904;2023-06-10T04:22:21;12.45;;;9.55;;
57067;SDS011;43391;47.448;18.904;2023-06-10T04:24:46;10.48;;;9.35;;
57067;SDS011;43391;47.448;18.904;2023-06-10T04:27:11;11.70;;;9.90;;
57067;SDS011;43391;47.448;18.904;2023-06-10T04:29:37;13.07;;;9.95;;
57067;SDS011;43391;47.448;18.904;2023-06-10T04:32:02;15.80;;;9.65;;
57067;SDS011;43391;47.448;18.904;2023-06-10T04:34:30;14.30;;;10.02;;
57067;SDS011;43391;47.448;18.904;2023-06-10T04:36:55;11.18;;;9.25;;
57067;SDS011;43391;47.448;18.904;2023-06-10T04:39:21;15.20;;;9.50;;
57067;SDS011;43391;47.448;18.904;2023-06-10T04:41:47;11.95;;;9.90;;
57067;SDS011;43391;47.448;18.904;2023-06-10T04:44:13;13.02;;;9.45;;
57067;SDS011;43391;47.448;18.904;2023-06-10T04:46:38;11.48;;;9.55;;
57067;SDS011;43391;47.448;18.904;2023-06-10T04:49:04;11.70;;;9.52;;
57067;SDS011;43391;47.448;18.904;2023-06-10T04:51:30;11.85;;;9.68;;
57067;SDS011;43391;47.448;18.904;2023-06-10T04:53:55;14.10;;;9.40;;
57067;SDS011;43391;47.448;18.904;2023-06-10T04:56:20;11.23;;;9.05;;
57067;SDS011;43391;47.448;18.904;2023-06-10T04:58:47;10.40;;;8.63;;
57067;SDS011;43391;47.448;18.904;2023-06-10T05:01:12;12.73;;;8.65;;
57067;SDS011;43391;47.448;18.904;2023-06-10T05:03:37;10.60;;;8.90;;
57067;SDS011;43391;47.448;18.904;2023-06-10T05:06:03;9.95;;;8.48;;
57067;SDS011;43391;47.448;18.904;2023-06-10T05:08:28;10.50;;;9.40;;
57067;SDS011;43391;47.448;18.904;2023-06-10T05:10:53;11.60;;;9.23;;
57067;SDS011;43391;47.448;18.904;2023-06-10T05:13:19;10.93;;;9.10;;
57067;SDS011;43391;47.448;18.904;2023-06-10T05:15:44;14.50;;;9.27;;
57067;SDS011;43391;47.448;18.904;2023-06-10T05:18:10;11.68;;;8.65;;
57067;SDS011;43391;47.448;18.904;2023-06-10T05:20:37;10.93;;;9.20;;
57067;SDS011;43391;47.448;18.904;2023-06-10T05:23:03;10.25;;;9.20;;
57067;SDS011;43391;47.448;18.904;2023-06-10T05:25:30;9.85;;;8.85;;
57067;SDS011;43391;47.448;18.904;2023-06-10T05:27:56;10.98;;;8.48;;
57067;SDS011;43391;47.448;18.904;2023-06-10T05:30:21;12.75;;;8.63;;
57067;SDS011;43391;47.448;18.904;2023-06-10T05:32:47;12.88;;;9.30;;
57067;SDS011;43391;47.448;18.904;2023-06-10T05:35:13;13.20;;;10.35;;
57067;SDS011;43391;47.448;18.904;2023-06-10T05:37:39;12.35;;;11.02;;
57067;SDS011;43391;47.448;18.904;2023-06-10T05:40:04;14.25;;;10.15;;
57067;SDS011;43391;47.448;18.904;2023-06-10T05:42:31;15.27;;;11.80;;
57067;SDS011;43391;47.448;18.904;2023-06-10T05:44:56;15.23;;;10.80;;
57067;SDS011;43391;47.448;18.904;2023-06-10T05:47:21;12.25;;;10.77;;
57067;SDS011;43391;47.448;18.904;2023-06-10T05:49:47;17.40;;;10.55;;
57067;SDS011;43391;47.448;18.904;2023-06-10T05:52:14;15.45;;;10.88;;
57067;SDS011;43391;47.448;18.904;2023-06-10T05:54:40;17.00;;;9.98;;
57067;SDS011;43391;47.448;18.904;2023-06-10T05:57:05;12.10;;;8.25;;
57067;SDS011;43391;47.448;18.904;2023-06-10T05:59:31;12.82;;;9.73;;
57067;SDS011;43391;47.448;18.904;2023-06-10T06:01:56;9.82;;;8.38;;
57067;SDS011;43391;47.448;18.904;2023-06-10T06:04:21;11.48;;;7.45;;
57067;SDS011;43391;47.448;18.904;2023-06-10T06:06:47;8.10;;;6.63;;
57067;SDS011;43391;47.448;18.904;2023-06-10T06:09:12;6.80;;;5.80;;
57067;SDS011;43391;47.448;18.904;2023-06-10T06:11:38;7.28;;;6.57;;
57067;SDS011;43391;47.448;18.904;2023-06-10T06:14:03;7.82;;;6.00;;
57067;SDS011;43391;47.448;18.904;2023-06-10T06:16:29;7.68;;;6.68;;
57067;SDS011;43391;47.448;18.904;2023-06-10T06:18:54;12.73;;;6.78;;
57067;SDS011;43391;47.448;18.904;2023-06-10T06:21:19;7.00;;;5.88;;
57067;SDS011;43391;47.448;18.904;2023-06-10T06:23:45;8.23;;;5.82;;
57067;SDS011;43391;47.448;18.904;2023-06-10T06:26:10;6.55;;;5.85;;
57067;SDS011;43391;47.448;18.904;2023-06-10T06:28:35;10.43;;;6.53;;
57067;SDS011;43391;47.448;18.904;2023-06-10T06:31:01;8.65;;;5.95;;
57067;SDS011;43391;47.448;18.904;2023-06-10T06:33:26;9.60;;;5.50;;
57067;SDS011;43391;47.448;18.904;2023-06-10T06:35:52;7.28;;;5.68;;
57067;SDS011;43391;47.448;18.904;2023-06-10T06:38:17;9.15;;;6.13;;
57067;SDS011;43391;47.448;18.904;2023-06-10T06:40:43;7.32;;;6.05;;
57067;SDS011;43391;47.448;18.904;2023-06-10T06:43:08;6.82;;;6.00;;
57067;SDS011;43391;47.448;18.904;2023-06-10T06:45:33;8.95;;;6.43;;
57067;SDS011;43391;47.448;18.904;2023-06-10T06:47:59;12.18;;;7.13;;
57067;SDS011;43391;47.448;18.904;2023-06-10T06:50:24;18.85;;;8.35;;
57067;SDS011;43391;47.448;18.904;2023-06-10T06:52:50;7.22;;;6.45;;
57067;SDS011;43391;47.448;18.904;2023-06-10T06:55:15;11.88;;;7.50;;
57067;SDS011;43391;47.448;18.904;2023-06-10T06:57:40;9.93;;;6.45;;
57067;SDS011;43391;47.448;18.904;2023-06-10T07:00:06;7.22;;;6.25;;
57067;SDS011;43391;47.448;18.904;2023-06-10T07:02:34;8.13;;;6.22;;
57067;SDS011;43391;47.448;18.904;2023-06-10T07:05:00;10.38;;;5.63;;
57067;SDS011;43391;47.448;18.904;2023-06-10T07:07:26;8.70;;;6.50;;
57067;SDS011;43391;47.448;18.904;2023-06-10T07:09:51;8.40;;;6.28;;
57067;SDS011;43391;47.448;18.904;2023-06-10T07:12:17;9.25;;;6.15;;
57067;SDS011;43391;47.448;18.904;2023-06-10T07:14:43;9.18;;;6.05;;
57067;SDS011;43391;47.448;18.904;2023-06-10T07:17:09;11.65;;;6.90;;
57067;SDS011;43391;47.448;18.904;2023-06-10T07:19:35;9.10;;;5.88;;
57067;SDS011;43391;47.448;18.904;2023-06-10T07:22:00;8.82;;;6.55;;
57067;SDS011;43391;47.448;18.904;2023-06-10T07:24:25;6.72;;;6.00;;
57067;SDS011;43391;47.448;18.904;2023-06-10T07:26:51;7.60;;;5.32;;
57067;SDS011;43391;47.448;18.904;2023-06-10T07:29:16;8.05;;;6.40;;
57067;SDS011;43391;47.448;18.904;2023-06-10T07:31:42;13.18;;;6.00;;
57067;SDS011;43391;47.448;18.904;2023-06-10T07:34:07;9.40;;;6.43;;
57067;SDS011;43391;47.448;18.904;2023-06-10T07:36:32;7.90;;;7.03;;
57067;SDS011;43391;47.448;18.904;2023-06-10T07:38:58;8.10;;;6.80;;
57067;SDS011;43391;47.448;18.904;2023-06-10T07:41:23;11.05;;;7.38;;
57067;SDS011;43391;47.448;18.904;2023-06-10T07:43:50;8.05;;;7.20;;
57067;SDS011;43391;47.448;18.904;2023-06-10T07:46:19;8.82;;;7.15;;
57067;SDS011;43391;47.448;18.904;2023-06-10T07:48:46;9.10;;;7.15;;
57067;SDS011;43391;47.448;18.904;2023-06-10T07:51:12;8.88;;;7.50;;
57067;SDS011;43391;47.448;18.904;2023-06-10T07:53:37;8.27;;;7.40;;
57067;SDS011;43391;47.448;18.904;2023-06-10T07:56:02;8.40;;;6.85;;
57067;SDS011;43391;47.448;18.904;2023-06-10T07:58:28;8.30;;;7.10;;
57067;SDS011;43391;47.448;18.904;2023-06-10T08:00:53;7.50;;;6.78;;
57067;SDS011;43391;47.448;18.904;2023-06-10T08:03:19;9.90;;;6.75;;
57067;SDS011;43391;47.448;18.904;2023-06-10T08:05:44;9.98;;;6.80;;
57067;SDS011;43391;47.448;18.904;2023-06-10T08:08:10;8.02;;;6.90;;
57067;SDS011;43391;47.448;18.904;2023-06-10T08:10:35;8.77;;;6.45;;
57067;SDS011;43391;47.448;18.904;2023-06-10T08:13:00;7.65;;;6.82;;
57067;SDS011;43391;47.448;18.904;2023-06-10T08:15:26;7.45;;;6.38;;
57067;SDS011;43391;47.448;18.904;2023-06-10T08:17:51;7.78;;;6.97;;
57067;SDS011;43391;47.448;18.904;2023-06-10T08:20:17;7.75;;;6.40;;
57067;SDS011;43391;47.448;18.904;2023-06-10T08:22:43;6.28;;;5.68;;
57067;SDS011;43391;47.448;18.904;2023-06-10T08:25:08;8.20;;;6.60;;
57067;SDS011;43391;47.448;18.904;2023-06-10T08:27:34;8.13;;;5.43;;
57067;SDS011;43391;47.448;18.904;2023-06-10T08:29:59;10.52;;;5.70;;
57067;SDS011;43391;47.448;18.904;2023-06-10T08:32:25;8.88;;;5.75;;
57067;SDS011;43391;47.448;18.904;2023-06-10T08:34:51;8.68;;;5.60;;
57067;SDS011;43391;47.448;18.904;2023-06-10T08:37:16;7.15;;;5.63;;
57067;SDS011;43391;47.448;18.904;2023-06-10T08:39:41;7.25;;;5.78;;
57067;SDS011;43391;47.448;18.904;2023-06-10T08:42:23;9.43;;;6.10;;
57067;SDS011;43391;47.448;18.904;2023-06-10T08:44:53;8.50;;;6.03;;
57067;SDS011;43391;47.448;18.904;2023-06-10T08:47:24;7.85;;;6.15;;
57067;SDS011;43391;47.448;18.904;2023-06-10T08:49:50;9.20;;;6.25;;
57067;SDS011;43391;47.448;18.904;2023-06-10T08:52:17;6.38;;;5.15;;
57067;SDS011;43391;47.448;18.904;2023-06-10T08:54:48;6.20;;;5.35;;
57067;SDS011;43391;47.448;18.904;2023-06-10T08:57:18;5.82;;;5.18;;
57067;SDS011;43391;47.448;18.904;2023-06-10T08:59:45;7.15;;;5.50;;
57067;SDS011;43391;47.448;18.904;2023-06-10T09:02:11;7.88;;;5.07;;
57067;SDS011;43391;47.448;18.904;2023-06-10T09:04:40;7.85;;;5.65;;
57067;SDS011;43391;47.448;18.904;2023-06-10T09:07:07;6.70;;;5.38;;
57067;SDS011;43391;47.448;18.904;2023-06-10T09:09:33;5.88;;;5.00;;
57067;SDS011;43391;47.448;18.904;2023-06-10T09:12:00;5.78;;;5.03;;
57067;SDS011;43391;47.448;18.904;2023-06-10T09:14:25;8.02;;;5.75;;
57067;SDS011;43391;47.448;18.904;2023-06-10T09:16:51;6.45;;;5.70;;
57067;SDS011;43391;47.448;18.904;2023-06-10T09:19:21;7.20;;;5.78;;
57067;SDS011;43391;47.448;18.904;2023-06-10T09:21:48;7.90;;;5.38;;
57067;SDS011;43391;47.448;18.904;2023-06-10T09:24:13;8.02;;;5.80;;
57067;SDS011;43391;47.448;18.904;2023-06-10T09:26:39;6.97;;;6.22;;
57067;SDS011;43391;47.448;18.904;2023-06-10T09:29:05;8.07;;;5.30;;
57067;SDS011;43391;47.448;18.904;2023-06-10T09:31:35;8.00;;;5.43;;
57067;SDS011;43391;47.448;18.904;2023-06-10T09:34:06;8.07;;;4.88;;
57067;SDS011;43391;47.448;18.904;2023-06-10T09:36:32;5.15;;;4.65;;
57067;SDS011;43391;47.448;18.904;2023-06-10T09:38:58;5.93;;;4.40;;
57067;SDS011;43391;47.448;18.904;2023-06-10T09:41:31;5.53;;;4.55;;
57067;SDS011;43391;47.448;18.904;2023-06-10T09:43:58;4.75;;;4.32;;
57067;SDS011;43391;47.448;18.904;2023-06-10T09:46:23;6.07;;;4.65;;
57067;SDS011;43391;47.448;18.904;2023-06-10T09:48:49;5.15;;;4.57;;
57067;SDS011;43391;47.448;18.904;2023-06-10T09:51:16;6.78;;;4.18;;
57067;SDS011;43391;47.448;18.904;2023-06-10T09:53:48;7.15;;;4.60;;
57067;SDS011;43391;47.448;18.904;2023-06-10T09:56:15;5.75;;;4.63;;
57067;SDS011;43391;47.448;18.904;2023-06-10T09:58:40;5.40;;;4.25;;
57067;SDS011;43391;47.448;18.904;2023-06-10T10:01:08;5.63;;;4.35;;
57067;SDS011;43391;47.448;18.904;2023-06-10T10:06:11;5.03;;;4.47;;
57067;SDS011;43391;47.448;18.904;2023-06-10T10:08:37;4.97;;;4.40;;
57067;SDS011;43391;47.448;18.904;2023-06-10T10:11:03;7.47;;;5.45;;
57067;SDS011;43391;47.448;18.904;2023-06-10T10:13:28;6.05;;;4.85;;
57067;SDS011;43391;47.448;18.904;2023-06-10T10:15:59;6.35;;;4.70;;
57067;SDS011;43391;47.448;18.904;2023-06-10T10:18:27;9.82;;;5.13;;
57067;SDS011;43391;47.448;18.904;2023-06-10T10:20:55;5.03;;;4.38;;
57067;SDS011;43391;47.448;18.904;2023-06-10T10:23:24;7.13;;;4.50;;
57067;SDS011;43391;47.448;18.904;2023-06-10T10:25:54;6.07;;;4.63;;
57067;SDS011;43391;47.448;18.904;2023-06-10T10:28:21;6.05;;;4.70;;
57067;SDS011;43391;47.448;18.904;2023-06-10T10:30:52;5.50;;;4.70;;
57067;SDS011;43391;47.448;18.904;2023-06-10T10:33:27;5.03;;;4.38;;
57067;SDS011;43391;47.448;18.904;2023-06-10T10:36:01;5.85;;;5.15;;
57067;SDS011;43391;47.448;18.904;2023-06-10T10:38:27;7.00;;;4.75;;
57067;SDS011;43391;47.448;18.904;2023-06-10T10:40:53;6.68;;;5.20;;
57067;SDS011;43391;47.448;18.904;2023-06-10T10:43:24;5.30;;;4.60;;
57067;SDS011;43391;47.448;18.904;2023-06-10T10:45:58;17.55;;;11.90;;
57067;SDS011;43391;47.448;18.904;2023-06-10T10:48:27;14.07;;;11.75;;
57067;SDS011;43391;47.448;18.904;2023-06-10T10:50:59;15.68;;;14.05;;
57067;SDS011;43391;47.448;18.904;2023-06-10T10:53:26;21.00;;;12.93;;
57067;SDS011;43391;47.448;18.904;2023-06-10T10:56:24;13.32;;;11.98;;
57067;SDS011;43391;47.448;18.904;2023-06-10T10:59:01;14.95;;;13.50;;
57067;SDS011;43391;47.448;18.904;2023-06-10T11:01:28;15.77;;;14.18;;
57067;SDS011;43391;47.448;18.904;2023-06-10T11:04:06;19.17;;;15.15;;
57067;SDS011;43391;47.448;18.904;2023-06-10T11:08:59;13.95;;;12.45;;
57067;SDS011;43391;47.448;18.904;2023-06-10T11:11:25;15.48;;;13.98;;
57067;SDS011;43391;47.448;18.904;2023-06-10T11:13:59;15.95;;;12.40;;
57067;SDS011;43391;47.448;18.904;2023-06-10T11:16:38;16.77;;;13.10;;
57067;SDS011;43391;47.448;18.904;2023-06-10T11:19:05;14.13;;;12.70;;
57067;SDS011;43391;47.448;18.904;2023-06-10T11:21:30;14.18;;;11.40;;
57067;SDS011;43391;47.448;18.904;2023-06-10T11:23:57;15.25;;;13.05;;
57067;SDS011;43391;47.448;18.904;2023-06-10T11:31:22;14.88;;;11.63;;
57067;SDS011;43391;47.448;18.904;2023-06-10T11:33:48;12.48;;;11.18;;
57067;SDS011;43391;47.448;18.904;2023-06-10T11:36:17;11.35;;;10.18;;
57067;SDS011;43391;47.448;18.904;2023-06-10T11:38:42;11.82;;;9.98;;
57067;SDS011;43391;47.448;18.904;2023-06-10T11:41:09;12.65;;;11.35;;
57067;SDS011;43391;47.448;18.904;2023-06-10T11:43:36;14.88;;;12.20;;
57067;SDS011;43391;47.448;18.904;2023-06-10T11:46:02;13.70;;;11.80;;
57067;SDS011;43391;47.448;18.904;2023-06-10T11:48:28;14.68;;;10.93;;
57067;SDS011;43391;47.448;18.904;2023-06-10T11:53:21;11.73;;;10.20;;
57067;SDS011;43391;47.448;18.904;2023-06-10T11:55:47;11.13;;;10.00;;
57067;SDS011;43391;47.448;18.904;2023-06-10T11:58:16;12.20;;;11.00;;
57067;SDS011;43391;47.448;18.904;2023-06-10T12:00:52;13.32;;;10.30;;
57067;SDS011;43391;47.448;18.904;2023-06-10T12:03:19;11.57;;;10.38;;
57067;SDS011;43391;47.448;18.904;2023-06-10T12:05:58;11.50;;;10.23;;
57067;SDS011;43391;47.448;18.904;2023-06-10T12:08:25;11.90;;;10.25;;
57067;SDS011;43391;47.448;18.904;2023-06-10T12:10:52;10.77;;;9.77;;
57067;SDS011;43391;47.448;18.904;2023-06-10T12:13:18;11.93;;;10.82;;
57067;SDS011;43391;47.448;18.904;2023-06-10T12:15:44;11.80;;;10.60;;
57067;SDS011;43391;47.448;18.904;2023-06-10T12:18:16;10.95;;;9.95;;
57067;SDS011;43391;47.448;18.904;2023-06-10T12:20:43;13.43;;;10.93;;
57067;SDS011;43391;47.448;18.904;2023-06-10T12:23:09;16.27;;;11.43;;
57067;SDS011;43391;47.448;18.904;2023-06-10T12:25:35;12.35;;;10.55;;
57067;SDS011;43391;47.448;18.904;2023-06-10T12:28:02;12.32;;;11.02;;
57067;SDS011;43391;47.448;18.904;2023-06-10T12:30:28;12.15;;;10.90;;
57067;SDS011;43391;47.448;18.904;2023-06-10T12:32:54;11.23;;;9.82;;
57067;SDS011;43391;47.448;18.904;2023-06-10T12:35:22;11.75;;;10.30;;
57067;SDS011;43391;47.448;18.904;2023-06-10T12:38:02;16.27;;;10.32;;
57067;SDS011;43391;47.448;18.904;2023-06-10T12:40:35;12.63;;;9.98;;
57067;SDS011;43391;47.448;18.904;2023-06-10T12:43:02;11.50;;;10.35;;
57067;SDS011;43391;47.448;18.904;2023-06-10T12:45:28;13.15;;;10.38;;
57067;SDS011;43391;47.448;18.904;2023-06-10T12:48:05;12.90;;;10.30;;
57067;SDS011;43391;47.448;18.904;2023-06-10T12:50:40;12.02;;;9.38;;
57067;SDS011;43391;47.448;18.904;2023-06-10T12:53:07;12.73;;;9.95;;
57067;SDS011;43391;47.448;18.904;2023-06-10T12:55:33;13.95;;;10.45;;
57067;SDS011;43391;47.448;18.904;2023-06-10T12:57:59;11.32;;;10.13;;
57067;SDS011;43391;47.448;18.904;2023-06-10T13:00:26;10.32;;;9.13;;
57067;SDS011;43391;47.448;18.904;2023-06-10T13:02:55;22.77;;;13.40;;
57067;SDS011;43391;47.448;18.904;2023-06-10T13:05:21;11.73;;;9.27;;
57067;SDS011;43391;47.448;18.904;2023-06-10T13:07:46;13.23;;;10.93;;
57067;SDS011;43391;47.448;18.904;2023-06-10T13:10:15;23.30;;;13.27;;
57067;SDS011;43391;47.448;18.904;2023-06-10T13:12:42;8.70;;;7.80;;
57067;SDS011;43391;47.448;18.904;2023-06-10T13:15:07;8.63;;;7.15;;
57067;SDS011;43391;47.448;18.904;2023-06-10T13:17:33;6.85;;;6.15;;
57067;SDS011;43391;47.448;18.904;2023-06-10T13:19:59;5.53;;;5.03;;
57067;SDS011;43391;47.448;18.904;2023-06-10T13:22:26;6.47;;;5.20;;
57067;SDS011;43391;47.448;18.904;2023-06-10T13:24:52;7.47;;;5.45;;
57067;SDS011;43391;47.448;18.904;2023-06-10T13:27:17;5.80;;;5.13;;
57067;SDS011;43391;47.448;18.904;2023-06-10T13:29:42;7.55;;;5.13;;
57067;SDS011;43391;47.448;18.904;2023-06-10T13:32:08;6.10;;;5.43;;
57067;SDS011;43391;47.448;18.904;2023-06-10T13:34:33;5.95;;;5.20;;
57067;SDS011;43391;47.448;18.904;2023-06-10T13:36:58;6.47;;;5.20;;
57067;SDS011;43391;47.448;18.904;2023-06-10T13:39:24;6.32;;;4.80;;
57067;SDS011;43391;47.448;18.904;2023-06-10T13:41:49;6.93;;;4.90;;
57067;SDS011;43391;47.448;18.904;2023-06-10T13:44:15;8.10;;;5.63;;
57067;SDS011;43391;47.448;18.904;2023-06-10T13:46:40;5.53;;;4.90;;
57067;SDS011;43391;47.448;18.904;2023-06-10T13:49:05;4.72;;;4.20;;
57067;SDS011;43391;47.448;18.904;2023-06-10T13:51:31;5.13;;;4.57;;
57067;SDS011;43391;47.448;18.904;2023-06-10T13:53:56;4.20;;;3.80;;
57067;SDS011;43391;47.448;18.904;2023-06-10T13:56:21;5.32;;;4.38;;
57067;SDS011;43391;47.448;18.904;2023-06-10T13:58:47;5.10;;;4.60;;
57067;SDS011;43391;47.448;18.904;2023-06-10T14:01:13;12.35;;;4.30;;
57067;SDS011;43391;47.448;18.904;2023-06-10T14:03:38;4.38;;;3.97;;
57067;SDS011;43391;47.448;18.904;2023-06-10T14:06:04;5.35;;;4.10;;
57067;SDS011;43391;47.448;18.904;2023-06-10T14:08:29;4.97;;;4.47;;
57067;SDS011;43391;47.448;18.904;2023-06-10T14:10:54;6.22;;;4.38;;
57067;SDS011;43391;47.448;18.904;2023-06-10T14:13:20;8.45;;;5.57;;
57067;SDS011;43391;47.448;18.904;2023-06-10T14:15:45;5.30;;;4.80;;
57067;SDS011;43391;47.448;18.904;2023-06-10T14:18:11;6.68;;;5.45;;
57067;SDS011;43391;47.448;18.904;2023-06-10T14:20:37;7.40;;;6.30;;
57067;SDS011;43391;47.448;18.904;2023-06-10T14:23:02;7.50;;;6.22;;
57067;SDS011;43391;47.448;18.904;2023-06-10T14:25:28;6.50;;;5.90;;
57067;SDS011;43391;47.448;18.904;2023-06-10T14:27:53;8.52;;;6.32;;
57067;SDS011;43391;47.448;18.904;2023-06-10T14:30:19;7.20;;;6.50;;
57067;SDS011;43391;47.448;18.904;2023-06-10T14:32:44;9.10;;;6.53;;
57067;SDS011;43391;47.448;18.904;2023-06-10T14:35:10;7.38;;;6.47;;
57067;SDS011;43391;47.448;18.904;2023-06-10T14:37:35;12.70;;;6.90;;
57067;SDS011;43391;47.448;18.904;2023-06-10T14:40:01;7.18;;;6.50;;
57067;SDS011;43391;47.448;18.904;2023-06-10T14:42:28;9.38;;;6.95;;